Time;durP1;ratioP1;P1;durP2;ratioP2;P2;SDS_P1;SDS_P2;PMS_P1;PMS_P2;Temp;Humidity;BMP_temperature;BMP_pressure;BME280_temperature;BME280_humidity;BME280_pressure;Samples;Min_cycle;Max_cycle;Signal;HPM_P1;HPM_P2
2022/08/13 00:04:59;;;;;;;3.00;1.27;;;18.00;99.80;;;;;;21089019;28;20047;-75
2022/08/13 00:15:08;;;;;;;1.77;1.35;;;17.90;99.90;;;;;;21088087;28;20047;-75
2022/08/13 00:25:09;;;;;;;2.08;1.40;;;17.70;99.90;;;;;;21020934;28;20098;-75
2022/08/13 00:35:10;;;;;;;1.53;1.10;;;17.70;99.90;;;;;;20987033;28;20467;-74
2022/08/13 00:45:11;;;;;;;1.23;1.13;;;17.80;99.90;;;;;;20972726;28;20080;-75
2022/08/13 00:55:16;;;;;;;2.65;1.60;;;18.00;99.90;;;;;;20920253;28;20116;-74
2022/08/13 01:05:23;;;;;;;2.03;1.00;;;18.20;99.90;;;;;;20976090;28;20037;-74
2022/08/13 01:15:25;;;;;;;1.55;1.00;;;17.90;99.90;;;;;;21000860;28;20064;-74
2022/08/13 01:25:27;;;;;;;1.63;1.20;;;17.70;99.90;;;;;;20998304;28;20129;-74
2022/08/13 01:35:28;;;;;;;5.10;1.27;;;17.70;99.90;;;;;;20976524;28;20045;-73
2022/08/13 01:45:30;;;;;;;3.10;1.27;;;17.50;99.90;;;;;;20915222;28;20056;-74
2022/08/13 01:55:41;;;;;;;8.45;2.15;;;17.50;99.90;;;;;;20912754;28;20033;-74
2022/08/13 02:05:43;;;;;;;3.60;1.48;;;17.10;99.90;;;;;;20972736;28;20142;-76
2022/08/13 02:15:46;;;;;;;6.23;1.50;;;16.70;99.90;;;;;;20993785;28;20043;-76
2022/08/13 02:25:50;;;;;;;2.95;1.50;;;15.90;99.90;;;;;;20950212;28;20071;-76
2022/08/13 02:35:52;;;;;;;7.90;1.42;;;16.00;99.90;;;;;;20949587;28;20040;-76
2022/08/13 02:45:54;;;;;;;5.10;1.33;;;15.90;99.90;;;;;;20949100;28;20494;-76
2022/08/13 02:55:55;;;;;;;2.08;1.33;;;16.00;99.90;;;;;;20952886;28;20043;-76
2022/08/13 03:05:56;;;;;;;1.77;1.30;;;16.00;99.90;;;;;;20963992;28;20508;-76
2022/08/13 03:15:57;;;;;;;7.20;1.67;;;15.80;99.90;;;;;;20990674;28;20039;-76
2022/08/13 03:25:58;;;;;;;9.03;1.80;;;16.00;99.90;;;;;;21014512;22;20041;-76
2022/08/13 03:35:59;;;;;;;3.43;1.60;;;16.20;99.90;;;;;;20988886;28;20105;-76
2022/08/13 03:46:00;;;;;;;1.70;1.03;;;16.10;99.90;;;;;;20989431;28;20042;-76
2022/08/13 03:56:02;;;;;;;1.47;1.33;;;16.00;99.90;;;;;;20988732;28;20036;-76
2022/08/13 04:06:09;;;;;;;1.95;1.58;;;15.80;99.90;;;;;;20988537;28;20552;-76
2022/08/13 04:16:12;;;;;;;2.38;1.75;;;15.70;99.90;;;;;;20993717;28;20068;-76
2022/08/13 04:26:15;;;;;;;3.95;1.60;;;15.60;99.90;;;;;;21002549;28;20076;-76
2022/08/13 04:36:18;;;;;;;3.78;1.85;;;15.80;99.90;;;;;;21000888;28;20084;-76
2022/08/13 04:46:18;;;;;;;3.57;1.83;;;16.20;99.90;;;;;;21002215;28;20422;-76
2022/08/13 04:56:19;;;;;;;3.10;1.77;;;16.40;99.90;;;;;;21000413;28;20051;-76
2022/08/13 05:06:20;;;;;;;5.57;1.37;;;16.20;99.90;;;;;;20999805;28;20041;-76
2022/08/13 05:16:21;;;;;;;2.90;1.40;;;16.20;99.90;;;;;;20999081;28;20041;-76
2022/08/13 05:26:24;;;;;;;2.07;1.50;;;16.30;99.90;;;;;;20995987;28;20051;-76
2022/08/13 05:36:28;;;;;;;1.77;1.30;;;16.50;99.90;;;;;;20996121;28;20120;-76
2022/08/13 05:46:30;;;;;;;5.70;1.70;;;17.00;99.90;;;;;;20996891;28;20044;-76
2022/08/13 05:56:37;;;;;;;;;;;17.50;99.90;;;;;;20995973;28;20224;-76
2022/08/13 06:06:39;;;;;;;2.83;1.60;;;17.80;99.90;;;;;;20993471;28;19909;-76
2022/08/13 06:16:40;;;;;;;;;;;18.20;99.90;;;;;;20994348;28;20554;-76
2022/08/13 06:26:40;;;;;;;1.77;1.50;;;18.40;99.90;;;;;;20991440;28;19912;-76
2022/08/13 06:36:41;;;;;;;8.60;1.47;;;19.00;99.90;;;;;;20991538;28;20495;-76
2022/08/13 06:46:43;;;;;;;2.07;1.47;;;19.70;99.90;;;;;;20990614;28;20491;-76
2022/08/13 06:56:44;;;;;;;3.08;1.55;;;20.50;99.90;;;;;;20989839;28;20430;-76
2022/08/13 07:06:47;;;;;;;1.87;1.37;;;21.10;99.90;;;;;;20990778;28;20112;-77
2022/08/13 07:16:48;;;;;;;1.95;1.30;;;22.00;99.90;;;;;;20990345;28;20432;-76
2022/08/13 07:26:49;;;;;;;2.73;1.67;;;22.50;99.90;;;;;;20989959;28;20036;-76
2022/08/13 07:36:56;;;;;;;2.63;1.30;;;22.80;99.90;;;;;;20988323;28;20033;-76
2022/08/13 07:46:57;;;;;;;4.00;1.45;;;23.40;99.90;;;;;;20989429;28;20056;-77
2022/08/13 07:57:00;;;;;;;1.27;1.15;;;24.10;99.90;;;;;;20932441;28;20041;-78
2022/08/13 08:07:02;;;;;;;3.38;1.48;;;24.70;99.20;;;;;;20882450;28;20041;-77
2022/08/13 08:17:05;;;;;;;3.42;1.02;;;24.90;97.90;;;;;;20897385;28;20044;-77
2022/08/13 08:27:11;;;;;;;1.73;0.90;;;25.60;97.60;;;;;;20936047;28;20041;-78
2022/08/13 08:47:41;;;;;;;1.88;1.08;;;26.20;96.40;;;;;;20853035;28;20037;-76
2022/08/13 08:57:46;;;;;;;2.10;0.90;;;26.60;95.50;;;;;;20851600;28;20184;-77
2022/08/13 09:07:49;;;;;;;2.05;0.82;;;27.40;94.30;;;;;;20898637;28;20045;-77
2022/08/13 09:17:51;;;;;;;3.63;0.90;;;27.90;92.80;;;;;;20924774;28;20045;-77
2022/08/13 09:27:53;;;;;;;1.58;0.70;;;28.40;91.20;;;;;;20921693;28;20052;-77
2022/08/13 09:37:56;;;;;;;0.93;0.75;;;28.10;90.70;;;;;;20923938;28;20122;-77
2022/08/13 09:47:57;;;;;;;1.63;0.70;;;28.60;90.30;;;;;;20922673;28;20033;-78
2022/08/13 09:58:02;;;;;;;1.80;0.70;;;28.70;88.80;;;;;;20923804;28;20045;-75
2022/08/13 10:08:12;;;;;;;1.00;0.63;;;29.60;86.80;;;;;;20869073;28;20036;-78
2022/08/13 10:18:13;;;;;;;1.77;0.80;;;29.80;84.30;;;;;;20909705;22;20098;-77
2022/08/13 10:28:31;;;;;;;1.83;0.90;;;30.40;84.00;;;;;;21045689;28;20044;-77
2022/08/13 10:38:33;;;;;;;3.60;0.90;;;30.40;84.30;;;;;;21048531;28;20032;-77
2022/08/13 10:48:34;;;;;;;3.70;0.65;;;30.70;83.00;;;;;;21006887;28;20040;-77
2022/08/13 10:58:35;;;;;;;4.82;0.70;;;30.60;82.40;;;;;;21056551;28;20036;-77
2022/08/13 11:08:39;;;;;;;1.00;0.63;;;30.90;78.80;;;;;;21056543;28;20036;-77
2022/08/13 11:18:39;;;;;;;0.95;0.57;;;31.20;80.00;;;;;;21066512;28;20054;-77
2022/08/13 11:28:40;;;;;;;2.58;0.40;;;31.70;78.50;;;;;;21072356;28;20064;-77
2022/08/13 11:38:41;;;;;;;2.83;0.55;;;32.10;73.60;;;;;;21073001;28;20028;-77
2022/08/13 11:48:43;;;;;;;11.93;5.45;;;31.80;76.10;;;;;;21072940;28;20150;-77
2022/08/13 11:58:44;;;;;;;13.27;4.65;;;31.50;74.40;;;;;;21071894;28;20040;-77
2022/08/13 12:08:44;;;;;;;6.70;1.63;;;31.60;76.20;;;;;;21072030;28;20047;-78
2022/08/13 12:18:45;;;;;;;11.82;5.25;;;31.90;74.40;;;;;;20999698;28;20083;-78
2022/08/13 12:28:46;;;;;;;249.90;116.17;;;32.80;72.20;;;;;;21007879;28;20077;-78
2022/08/13 12:38:47;;;;;;;2.33;1.85;;;31.20;71.80;;;;;;21034357;28;20285;-78
2022/08/13 12:48:48;;;;;;;14.95;6.97;;;32.10;71.40;;;;;;21041843;28;20070;-78
2022/08/13 12:58:49;;;;;;;1.42;0.65;;;32.50;71.40;;;;;;21032498;28;20044;-78
2022/08/13 13:08:50;;;;;;;2.78;0.55;;;32.50;70.20;;;;;;21016273;28;20028;-78
2022/08/13 13:18:51;;;;;;;1.65;0.60;;;32.50;69.90;;;;;;21045401;28;20579;-76
2022/08/13 13:28:54;;;;;;;2.50;0.68;;;31.90;69.20;;;;;;21063806;28;20036;-77
2022/08/13 13:38:55;;;;;;;1.73;0.68;;;32.40;69.00;;;;;;21067771;28;20035;-77
2022/08/13 13:48:56;;;;;;;2.85;0.50;;;32.20;69.90;;;;;;21077653;28;20046;-77
2022/08/13 13:58:57;;;;;;;1.15;0.65;;;32.30;70.00;;;;;;21077518;28;20413;-77
2022/08/13 14:08:57;;;;;;;2.80;0.70;;;32.70;67.90;;;;;;21076986;28;20066;-78
2022/08/13 14:18:58;;;;;;;3.30;0.70;;;32.70;69.40;;;;;;21076702;28;20031;-76
2022/08/13 14:29:01;;;;;;;0.50;0.50;;;31.00;69.30;;;;;;21004375;28;20052;-78
2022/08/13 14:39:05;;;;;;;0.45;0.45;;;31.00;70.20;;;;;;21014418;28;20417;-78
2022/08/13 14:49:06;;;;;;;1.65;0.50;;;31.00;73.20;;;;;;21009525;28;20063;-78
2022/08/13 14:59:07;;;;;;;1.75;0.52;;;32.20;73.10;;;;;;21031348;28;20040;-77
2022/08/13 15:09:09;;;;;;;2.08;1.20;;;31.50;71.70;;;;;;20985953;28;20131;-76
2022/08/13 15:19:11;;;;;;;2.45;0.63;;;32.00;70.20;;;;;;21073696;28;20055;-76
2022/08/13 15:29:12;;;;;;;0.93;0.55;;;31.90;71.10;;;;;;21073272;28;20044;-77
2022/08/13 15:39:13;;;;;;;3.35;1.00;;;31.20;68.70;;;;;;21072946;28;20562;-77
2022/08/13 15:49:14;;;;;;;0.90;0.50;;;31.30;72.20;;;;;;21073633;28;20040;-76
2022/08/13 15:59:17;;;;;;;1.05;0.60;;;31.10;69.50;;;;;;21072164;28;20040;-77
2022/08/13 16:09:19;;;;;;;2.85;0.98;;;30.60;73.10;;;;;;21072530;28;20481;-76
2022/08/13 16:19:22;;;;;;;1.85;0.70;;;30.10;74.60;;;;;;21059823;28;20525;-76
2022/08/13 16:29:27;;;;;;;1.45;0.70;;;29.70;74.10;;;;;;21038089;28;20059;-77
2022/08/13 16:39:28;;;;;;;1.85;0.73;;;29.40;73.90;;;;;;21026064;28;20043;-75
2022/08/13 16:49:29;;;;;;;4.07;0.90;;;29.20;74.10;;;;;;21011727;28;20119;-77
2022/08/13 16:59:31;;;;;;;1.50;0.68;;;29.00;75.70;;;;;;20995945;28;20052;-77
2022/08/13 17:09:33;;;;;;;1.10;0.80;;;28.70;75.60;;;;;;20999765;28;20438;-76
2022/08/13 17:19:34;;;;;;;1.23;0.70;;;28.60;76.40;;;;;;20998422;28;20407;-77
2022/08/13 17:29:35;;;;;;;5.53;1.80;;;28.50;76.70;;;;;;21021754;22;20044;-74
2022/08/13 17:39:35;;;;;;;3.30;0.93;;;28.00;78.10;;;;;;20997832;28;20037;-75
2022/08/13 17:49:37;;;;;;;2.17;0.80;;;27.70;77.20;;;;;;20979069;28;20040;-75
2022/08/13 17:59:38;;;;;;;1.35;0.82;;;27.40;76.90;;;;;;20996149;28;20047;-75
2022/08/13 18:09:39;;;;;;;0.63;0.60;;;27.20;77.00;;;;;;20933532;28;20033;-75
2022/08/13 18:19:39;;;;;;;6.28;0.82;;;27.00;78.80;;;;;;20829246;28;20041;-75
2022/08/13 18:29:42;;;;;;;1.58;0.82;;;26.70;79.10;;;;;;20827184;28;20075;-75
2022/08/13 18:39:43;;;;;;;0.70;0.60;;;26.50;78.80;;;;;;20830323;28;20088;-76
2022/08/13 18:49:43;;;;;;;2.28;0.85;;;26.30;79.50;;;;;;20831267;28;20471;-77
2022/08/13 18:59:44;;;;;;;7.13;0.90;;;25.90;81.20;;;;;;20828455;28;20116;-76
2022/08/13 19:09:45;;;;;;;;;;;25.60;83.60;;;;;;20858177;28;20041;-76
2022/08/13 19:19:46;;;;;;;10.20;1.33;;;24.90;85.30;;;;;;20861321;28;19948;-76
2022/08/13 19:29:47;;;;;;;4.90;1.13;;;24.00;88.70;;;;;;20864763;28;20465;-75
2022/08/13 19:39:48;;;;;;;3.63;1.10;;;23.20;90.70;;;;;;20860490;28;20491;-75
2022/08/13 19:49:49;;;;;;;3.30;1.07;;;23.00;91.00;;;;;;20883456;28;20038;-78
2022/08/13 19:59:50;;;;;;;1.77;1.00;;;22.60;92.30;;;;;;20891031;28;20034;-76
2022/08/13 20:09:51;;;;;;;2.10;1.02;;;22.60;91.90;;;;;;20878907;28;20495;-78
2022/08/13 20:19:53;;;;;;;1.67;1.23;;;22.20;92.50;;;;;;20887613;28;20095;-77
2022/08/13 20:29:54;;;;;;;1.20;1.00;;;21.70;93.20;;;;;;20882430;28;20044;-77
2022/08/13 20:39:55;;;;;;;;;;;21.50;93.30;;;;;;20883610;28;20033;-77
2022/08/13 20:49:56;;;;;;;3.53;1.30;;;21.40;93.60;;;;;;20882117;28;19917;-77
2022/08/13 20:59:57;;;;;;;2.47;1.20;;;21.30;93.80;;;;;;20882799;28;20033;-77
2022/08/13 21:09:57;;;;;;;1.97;1.20;;;21.20;94.10;;;;;;20876723;28;20523;-76
2022/08/13 21:19:58;;;;;;;4.57;1.30;;;21.00;94.30;;;;;;20878807;28;20522;-76
2022/08/13 21:29:59;;;;;;;3.47;1.17;;;20.90;94.50;;;;;;20872141;28;20032;-76
2022/08/13 21:40:00;;;;;;;2.88;1.30;;;20.70;95.00;;;;;;20880143;28;20029;-77
2022/08/13 21:50:03;;;;;;;3.17;1.37;;;20.60;95.50;;;;;;20881005;28;20033;-76
2022/08/13 22:00:29;;;;;;;3.38;1.70;;;20.50;95.50;;;;;;20882134;28;20078;-77
2022/08/13 22:10:32;;;;;;;8.27;1.38;;;20.10;96.10;;;;;;20875542;28;20044;-74
2022/08/13 22:20:33;;;;;;;6.47;1.52;;;19.80;96.60;;;;;;20876770;28;20033;-76
2022/08/13 22:30:49;;;;;;;2.40;1.50;;;19.90;96.40;;;;;;20865211;28;20048;-76
2022/08/13 22:40:49;;;;;;;2.28;1.27;;;20.00;96.50;;;;;;20868366;28;20056;-77
2022/08/13 22:50:50;;;;;;;2.37;1.43;;;19.80;97.10;;;;;;20860503;28;20524;-77
2022/08/13 23:00:51;;;;;;;1.67;1.50;;;19.40;97.60;;;;;;20887276;28;20071;-77
2022/08/13 23:10:52;;;;;;;2.23;1.50;;;19.40;97.90;;;;;;20826055;28;20411;-76
2022/08/13 23:20:54;;;;;;;7.93;1.70;;;19.40;97.70;;;;;;20826938;28;20399;-76
2022/08/13 23:30:55;;;;;;;1.85;1.30;;;19.50;97.90;;;;;;20985327;23;20135;-78
2022/08/13 23:40:56;;;;;;;3.07;1.57;;;18.90;99.00;;;;;;21073951;28;20079;-76
2022/08/13 23:50:57;;;;;;;1.43;1.33;;;19.00;98.50;;;;;;21073641;28;20093;-76
